createdAt,value
2022-11-28T00:04:57.506Z,4.9
2022-11-28T00:07:01.293Z,7.1
2022-11-28T00:09:05.105Z,5.3
2022-11-28T00:11:08.914Z,5.7
2022-11-28T00:13:15.557Z,5
2022-11-28T00:15:19.410Z,7.2
2022-11-28T00:18:26.505Z,6.3
2022-11-28T00:24:37.920Z,6.2
2022-11-28T00:26:44.560Z,5.3
2022-11-28T00:28:48.380Z,7.8
2022-11-28T00:30:52.193Z,6.3
2022-11-28T00:34:59.800Z,5.1
2022-11-28T00:39:07.456Z,5.7
2022-11-28T00:41:14.078Z,6.7
2022-11-28T00:43:18.075Z,6.7
2022-11-28T00:45:21.721Z,5.9
2022-11-28T00:47:25.533Z,5.4
2022-11-28T00:49:29.463Z,6.1
2022-11-28T00:53:37.102Z,5.1
2022-11-28T00:55:43.752Z,6.3
2022-11-28T00:57:47.590Z,6.8
2022-11-28T00:59:51.395Z,7.2
2022-11-28T01:01:55.316Z,5.8
2022-11-28T01:03:59.120Z,5.8
2022-11-28T01:06:02.943Z,6.1
2022-11-28T01:08:06.858Z,4.8
2022-11-28T01:10:13.513Z,6.7
2022-11-28T01:12:17.293Z,5.8
2022-11-28T01:14:21.113Z,5.6
2022-11-28T01:15:24.433Z,6
2022-11-28T01:17:28.252Z,7.7
2022-11-28T01:19:32.161Z,6.7
2022-11-28T01:21:35.988Z,5.7
2022-11-28T01:23:42.605Z,5.9
2022-11-28T01:25:46.432Z,6.6
2022-11-28T01:27:50.237Z,5.7
2022-11-28T01:29:54.053Z,6.9
2022-11-28T01:31:58.075Z,6.1
2022-11-28T01:34:01.800Z,6.6
2022-11-28T01:36:05.629Z,6.7
2022-11-28T01:38:12.242Z,7.4
2022-11-28T01:40:16.055Z,4.7
2022-11-28T01:42:19.890Z,7.2
2022-11-28T01:44:23.727Z,6.3
2022-11-28T01:46:27.709Z,7
2022-11-28T01:48:31.467Z,4.1
2022-11-28T01:50:35.270Z,7.5
2022-11-28T01:52:41.892Z,6.7
2022-11-28T01:54:45.831Z,5.2
2022-11-28T01:56:49.730Z,6.9
2022-11-28T01:58:53.538Z,6.5
2022-11-28T02:00:57.402Z,5.5
2022-11-28T02:03:01.605Z,5.7
2022-11-28T02:09:15.926Z,5.9
2022-11-28T02:11:19.747Z,6.5
2022-11-28T02:14:26.901Z,5.7
2022-11-28T02:16:30.817Z,4.5
2022-11-28T02:18:34.529Z,6.5
2022-11-28T02:20:41.177Z,4.9
2022-11-28T02:22:45.002Z,5.8
2022-11-28T02:24:48.917Z,5.5
2022-11-28T02:26:52.717Z,3.6
2022-11-28T02:28:56.556Z,6.1
2022-11-28T02:31:00.549Z,6.3
2022-11-28T02:33:04.173Z,6.5
2022-11-28T02:35:10.806Z,6.5
2022-11-28T02:37:14.649Z,5.3
2022-11-28T02:39:18.550Z,6
2022-11-28T02:41:22.390Z,6.1
2022-11-28T02:43:27.027Z,6
2022-11-28T02:45:30.842Z,6.4
2022-11-28T02:47:34.655Z,6.7
2022-11-28T02:49:41.283Z,6.7
2022-11-28T02:51:45.142Z,5.7
2022-11-28T02:53:48.956Z,4.9
2022-11-28T02:55:52.793Z,6.1
2022-11-28T02:57:56.588Z,5.1
2022-11-28T03:00:00.519Z,5.7
2022-11-28T03:04:11.090Z,4
2022-11-28T03:06:14.903Z,4.8
2022-11-28T03:08:18.821Z,7
2022-11-28T03:10:36.912Z,6.3
2022-11-28T03:12:40.764Z,5.1
2022-11-28T03:14:44.843Z,4.5
2022-11-28T03:18:55.150Z,5.1
2022-11-28T03:20:59.000Z,5.2
2022-11-28T03:23:02.907Z,5.1
2022-11-28T03:25:06.815Z,5.7
2022-11-28T03:27:10.651Z,4.5
2022-11-28T03:29:14.476Z,5
2022-11-28T03:33:24.958Z,6.3
2022-11-28T03:35:28.784Z,5
2022-11-28T03:39:36.544Z,5.9
2022-11-28T03:41:40.381Z,4.7
2022-11-28T03:47:54.853Z,5.1
2022-11-28T03:49:58.666Z,5.5
2022-11-28T03:54:06.450Z,7
2022-11-28T03:56:10.328Z,4.3
2022-11-28T03:58:14.119Z,5.7
2022-11-28T04:00:20.744Z,5.8
2022-11-28T04:02:24.572Z,5.3
2022-11-28T04:04:28.400Z,5.5
2022-11-28T04:05:31.748Z,5.1
2022-11-28T04:07:35.639Z,5.7
2022-11-28T04:09:39.540Z,6.6
2022-11-28T04:11:43.383Z,5.3
2022-11-28T04:13:50.040Z,6.2
2022-11-28T04:15:53.985Z,6.2
2022-11-28T04:17:57.851Z,5
2022-11-28T04:20:01.585Z,5.9
2022-11-28T04:22:05.433Z,5.1
2022-11-28T04:24:09.277Z,4.8
2022-11-28T04:26:13.091Z,5.1
2022-11-28T04:32:27.407Z,4.2
2022-11-28T04:36:35.130Z,4.7
2022-11-28T04:38:38.952Z,4.8
2022-11-28T04:40:42.822Z,4.6
2022-11-28T04:42:52.793Z,4.9
2022-11-28T04:44:53.318Z,5.5
2022-11-28T04:46:57.247Z,4.7
2022-11-28T04:49:01.140Z,3.9
2022-11-28T04:51:04.942Z,5.4
2022-11-28T04:53:08.794Z,4.7
2022-11-28T04:55:12.632Z,4.7
2022-11-28T04:57:19.403Z,6
2022-11-28T04:59:24.742Z,4.6
2022-11-28T05:01:28.676Z,4.5
2022-11-28T05:06:39.622Z,6
2022-11-28T05:14:57.792Z,5.2
2022-11-28T05:21:09.413Z,4.8
2022-11-28T05:23:13.270Z,4.6
2022-11-28T05:25:19.917Z,4.9
2022-11-28T05:27:23.779Z,4.1
2022-11-28T05:29:27.612Z,4.9
2022-11-28T05:31:31.655Z,4
2022-11-28T05:33:35.274Z,5.8
2022-11-28T05:35:39.123Z,5.7
2022-11-28T05:37:42.960Z,5.4
2022-11-28T05:39:49.653Z,4.9
2022-11-28T05:41:53.445Z,4.5
2022-11-28T05:43:57.287Z,4.3
2022-11-28T05:46:01.264Z,3.9
2022-11-28T05:48:04.959Z,4.8
2022-11-28T05:50:08.816Z,3.3
2022-11-28T05:52:12.662Z,3.7
2022-11-28T05:54:19.301Z,3.8
2022-11-28T05:56:23.159Z,3.8
2022-11-28T05:58:26.974Z,3.7
2022-11-28T06:03:37.988Z,3.3
2022-11-28T06:05:43.151Z,3.3
2022-11-28T06:07:48.640Z,4.9
2022-11-28T06:09:52.521Z,3.5
2022-11-28T06:11:56.367Z,3.9
2022-11-28T06:14:00.169Z,4.6
2022-11-28T06:16:04.065Z,4.7
2022-11-28T06:18:07.971Z,2.7
2022-11-28T06:20:11.791Z,3.4
2022-11-28T06:22:18.446Z,4.1
2022-11-28T06:24:22.299Z,4
2022-11-28T06:26:26.131Z,3.7
2022-11-28T06:28:29.952Z,3.3
2022-11-28T06:32:37.653Z,3.2
2022-11-28T06:34:41.490Z,2.9
2022-11-28T06:36:48.156Z,4.4
2022-11-28T06:38:51.982Z,4.2
2022-11-28T06:40:55.819Z,2.9
2022-11-28T06:42:59.683Z,4
2022-11-28T06:45:03.535Z,3.5
2022-11-28T06:47:07.377Z,3.2
2022-11-28T06:49:11.222Z,4.2
2022-11-28T06:51:17.955Z,3.6
2022-11-28T06:53:21.794Z,3.8
2022-11-28T06:55:25.656Z,3.3
2022-11-28T06:57:55.216Z,4.3
2022-11-28T06:59:59.045Z,3.1
2022-11-28T07:02:07.239Z,2.8
2022-11-28T07:04:09.555Z,3.4
2022-11-28T07:06:13.403Z,3.5
2022-11-28T07:08:17.354Z,2.9
2022-11-28T07:10:21.116Z,3.9
2022-11-28T07:16:32.713Z,4.1
2022-11-28T07:18:39.298Z,3.5
2022-11-28T07:20:43.170Z,3.5
2022-11-28T07:22:46.988Z,3.6
2022-11-28T07:24:50.855Z,4
2022-11-28T07:26:54.701Z,4.1
2022-11-28T07:28:58.532Z,3.8
2022-11-28T07:31:02.383Z,2.8
2022-11-28T07:33:09.054Z,3.9
2022-11-28T07:35:12.996Z,4.1
2022-11-28T07:37:16.925Z,2.8
2022-11-28T07:39:20.763Z,4.6
2022-11-28T07:41:26.726Z,4.2
2022-11-28T07:43:28.457Z,4.1
2022-11-28T07:45:53.497Z,4.7
2022-11-28T07:47:39.014Z,4.9
2022-11-28T07:49:43.065Z,4.9
2022-11-28T07:51:46.751Z,4
2022-11-28T07:52:50.077Z,4.2
2022-11-28T07:57:12.658Z,4.4
2022-11-28T07:59:03.244Z,4.1
2022-11-28T08:01:08.656Z,5
2022-11-28T08:03:12.534Z,5.4
2022-11-28T08:05:16.415Z,5.4
2022-11-28T08:07:20.300Z,5
2022-11-28T08:11:27.873Z,4.9
2022-11-28T08:13:31.732Z,4.9
2022-11-28T08:15:38.362Z,5.5
2022-11-28T08:23:53.845Z,5.8
2022-11-28T08:25:57.769Z,6.7
2022-11-28T08:28:01.618Z,4.4
2022-11-28T08:30:08.260Z,6.3
2022-11-28T08:32:12.152Z,6
2022-11-28T08:36:19.797Z,5.6
2022-11-28T08:44:37.952Z,6.6
2022-11-28T08:49:48.951Z,6.1
2022-11-28T08:51:52.802Z,7.2
2022-11-28T08:53:59.586Z,8.5
2022-11-28T08:56:00.588Z,7.7
2022-11-28T08:58:07.243Z,7.4
2022-11-28T09:00:11.090Z,7.3
2022-11-28T09:04:18.876Z,8.4
2022-11-28T09:06:22.609Z,9
2022-11-28T09:08:26.455Z,7.1
2022-11-28T09:10:30.307Z,8.1
2022-11-28T09:12:36.969Z,8.5
2022-11-28T09:18:48.257Z,6.1
2022-11-28T09:20:52.113Z,6
2022-11-28T09:27:06.474Z,7.4
2022-11-28T09:29:10.341Z,6.2
2022-11-28T09:31:14.303Z,6.1
2022-11-28T09:33:18.136Z,6.1
2022-11-28T09:35:22.015Z,6.4
2022-11-28T09:37:25.867Z,6.9
2022-11-28T09:39:39.537Z,5.5
2022-11-28T09:43:40.215Z,5.8
2022-11-28T09:45:44.124Z,4.8
2022-11-28T09:48:51.229Z,5.2
2022-11-28T09:50:55.082Z,5.6
2022-11-28T09:52:59.064Z,5.2
2022-11-28T09:57:09.461Z,5.6
2022-11-28T09:59:13.340Z,4.1
2022-11-28T10:03:21.125Z,5.4
2022-11-28T10:05:24.874Z,4.9
2022-11-28T10:11:39.268Z,4.9
2022-11-28T10:14:06.540Z,5.3
2022-11-28T10:15:46.975Z,5.6
2022-11-28T10:17:50.829Z,6.2
2022-11-28T10:19:55.124Z,4.5
2022-11-28T10:21:59.554Z,4.9
2022-11-28T10:24:05.232Z,5.8
2022-11-28T10:26:09.085Z,5.3
2022-11-28T10:28:12.934Z,5.5
2022-11-28T10:30:16.880Z,5
2022-11-28T10:32:20.662Z,4.6
2022-11-28T10:34:24.510Z,3.8
2022-11-28T10:36:28.471Z,5.4
2022-11-28T10:38:35.123Z,6.1
2022-11-28T10:40:39.089Z,5.4
2022-11-28T10:42:42.947Z,4.8
2022-11-28T10:49:20.277Z,5.2
2022-11-28T10:53:30.806Z,3.7
2022-11-28T11:03:51.619Z,6.2
2022-11-28T11:08:02.226Z,6.8
2022-11-28T11:10:06.003Z,7.6
2022-11-28T11:12:09.936Z,6.5
2022-11-28T11:14:13.721Z,7.7
2022-11-28T11:16:17.696Z,7.2
2022-11-28T11:18:21.526Z,7
2022-11-28T11:20:28.143Z,7
2022-11-28T11:22:32.061Z,6.6
2022-11-28T11:24:35.901Z,8.1
2022-11-28T11:26:39.757Z,7.2
2022-11-28T11:28:43.627Z,7.4
2022-11-28T11:30:47.555Z,8.4
2022-11-28T11:32:51.841Z,7.1
2022-11-28T11:34:58.164Z,7.4
2022-11-28T11:37:01.902Z,8.2
2022-11-28T11:39:05.794Z,6.9
2022-11-28T11:40:09.117Z,7.7
2022-11-28T11:42:12.973Z,8.3
2022-11-28T11:44:16.835Z,8.2
2022-11-28T11:46:20.757Z,9.4
2022-11-28T11:48:27.386Z,8.7
2022-11-28T11:50:31.302Z,9.7
2022-11-28T11:54:39.000Z,7.2
2022-11-28T11:56:42.853Z,9.5
2022-11-28T11:58:46.732Z,13.3
2022-11-28T12:00:50.594Z,9.8
2022-11-28T12:05:01.256Z,10
2022-11-28T12:07:05.015Z,11
2022-11-28T12:09:08.869Z,15.2
2022-11-28T12:11:12.762Z,10.5
2022-11-28T12:13:16.633Z,11.8
2022-11-28T12:15:20.499Z,8.8
2022-11-28T12:19:31.029Z,10.7
2022-11-28T12:21:34.894Z,10
2022-11-28T12:23:38.782Z,9.7
2022-11-28T12:25:42.671Z,11
2022-11-28T12:27:46.539Z,9
2022-11-28T12:29:50.384Z,8.5
2022-11-28T12:31:57.104Z,12.9
2022-11-28T12:34:00.928Z,10.6
2022-11-28T12:36:04.829Z,10.8
2022-11-28T12:39:12.044Z,11.1
2022-11-28T12:41:15.908Z,13
2022-11-28T12:47:30.337Z,10.6
2022-11-28T12:49:34.192Z,11.2
2022-11-28T12:53:41.961Z,12.6
2022-11-28T12:55:45.822Z,11.9
2022-11-28T12:57:49.710Z,10
2022-11-28T12:59:56.382Z,11.3
2022-11-28T13:02:03.972Z,11.4
2022-11-28T13:04:04.091Z,11.4
2022-11-28T13:06:07.989Z,10.6
2022-11-28T13:08:11.857Z,10.2
2022-11-28T13:10:15.742Z,9.6
2022-11-28T13:12:19.634Z,11.8
2022-11-28T13:14:26.277Z,11.5
2022-11-28T13:16:30.189Z,10.7
2022-11-28T13:18:34.050Z,9.3
2022-11-28T13:20:37.912Z,9.9
2022-11-28T13:22:41.797Z,10.6
2022-11-28T13:24:45.627Z,11.9
2022-11-28T13:26:49.503Z,11.3
2022-11-28T13:28:56.202Z,13.1
2022-11-28T13:31:00.256Z,11.8
2022-11-28T13:33:03.916Z,10.1
2022-11-28T13:36:11.128Z,9.6
2022-11-28T13:38:38.467Z,10.4
2022-11-28T13:40:18.873Z,9.2
2022-11-28T13:43:02.512Z,11.5
2022-11-28T13:44:29.438Z,9.8
2022-11-28T13:46:33.343Z,11
2022-11-28T13:50:41.051Z,9.6
2022-11-28T13:54:49.328Z,10.9
2022-11-28T13:56:55.526Z,8.7
2022-11-28T13:58:59.373Z,10.4
2022-11-28T14:01:03.247Z,11.1
2022-11-28T14:03:07.195Z,9.6
2022-11-28T14:05:11.031Z,8.7
2022-11-28T14:09:18.758Z,9
2022-11-28T14:13:29.317Z,9.1
2022-11-28T14:19:41.010Z,10.2
2022-11-28T14:21:44.887Z,9.5
2022-11-28T14:23:48.755Z,11.6
2022-11-28T14:27:59.314Z,10.2
2022-11-28T14:36:40.537Z,10.2
2022-11-28T14:38:47.207Z,10.2
2022-11-28T14:40:51.115Z,10.4
2022-11-28T14:43:01.057Z,9.7
2022-11-28T14:45:03.246Z,10
2022-11-28T14:49:06.591Z,13.6
2022-11-28T14:51:10.522Z,12.4
2022-11-28T14:53:17.187Z,12.2
2022-11-28T14:55:21.062Z,10.3
2022-11-28T14:57:24.948Z,12.2
2022-11-28T14:59:28.800Z,10.9
2022-11-28T15:03:36.604Z,10.3
2022-11-28T15:07:47.127Z,13.2
2022-11-28T15:09:50.978Z,13.7
2022-11-28T15:11:54.825Z,13.3
2022-11-28T15:13:58.708Z,14.5
2022-11-28T15:16:02.594Z,12.2
2022-11-28T15:18:06.442Z,11.7
2022-11-28T15:20:10.331Z,11.9
2022-11-28T15:22:16.978Z,13.1
2022-11-28T15:24:20.875Z,13
2022-11-28T15:26:24.726Z,13.3
2022-11-28T15:27:28.076Z,13.5
2022-11-28T15:29:31.947Z,15.3
2022-11-28T15:31:35.945Z,12.5
2022-11-28T15:33:39.686Z,15.7
2022-11-28T15:35:46.360Z,15.5
2022-11-28T15:37:50.230Z,15.1
2022-11-28T15:41:57.971Z,16.2
2022-11-28T15:44:01.858Z,14.3
2022-11-28T15:46:05.712Z,17.3
2022-11-28T15:48:09.585Z,17
2022-11-28T15:50:16.285Z,17.4
2022-11-28T15:52:20.172Z,16.7
2022-11-28T15:54:24.036Z,16.2
2022-11-28T15:56:27.875Z,19.5
2022-11-28T15:58:31.768Z,18.5
2022-11-28T16:00:35.684Z,16.8
2022-11-28T16:02:39.560Z,15.5
2022-11-28T16:04:46.390Z,17.1
2022-11-28T16:06:50.077Z,17.1
2022-11-28T16:08:53.931Z,15.8
2022-11-28T16:10:57.803Z,14.4
2022-11-28T16:13:01.735Z,15.9
2022-11-28T16:15:05.567Z,14.3
2022-11-28T16:17:09.469Z,15.4
2022-11-28T16:19:16.152Z,14.4
2022-11-28T16:24:27.243Z,16.2
2022-11-28T16:26:31.151Z,15.5
2022-11-28T16:28:35.001Z,14.7
2022-11-28T16:30:38.879Z,15.2
2022-11-28T16:32:45.563Z,17.7
2022-11-28T16:34:49.447Z,19.5
2022-11-28T16:36:53.335Z,17.5
2022-11-28T16:38:57.228Z,18
2022-11-28T16:41:01.095Z,20.4
2022-11-28T16:43:04.988Z,21
2022-11-28T16:45:08.856Z,18.4
2022-11-28T16:47:15.552Z,19.4
2022-11-28T16:49:19.431Z,18.2
2022-11-28T16:51:23.307Z,17.9
2022-11-28T16:53:28.687Z,18.4
2022-11-28T16:55:32.535Z,19.2
2022-11-28T17:01:47.101Z,22.3
2022-11-28T17:03:50.892Z,16.3
2022-11-28T17:05:54.772Z,20.6
2022-11-28T17:07:58.683Z,18.8
2022-11-28T17:10:02.655Z,19.1
2022-11-28T17:12:06.430Z,16.4
2022-11-28T17:14:13.507Z,17
2022-11-28T17:16:17.026Z,18.2
2022-11-28T17:18:20.865Z,16.3
2022-11-28T17:20:24.739Z,14.8
2022-11-28T17:21:28.120Z,20.2
2022-11-28T17:23:31.957Z,18.1
2022-11-28T17:25:35.841Z,17.2
2022-11-28T17:29:46.722Z,19.6
2022-11-28T17:33:54.199Z,17
2022-11-28T17:35:58.045Z,21.1
2022-11-28T17:38:01.942Z,23.1
2022-11-28T17:40:05.802Z,17.4
2022-11-28T17:42:09.710Z,19.5
2022-11-28T17:44:16.349Z,23
2022-11-28T17:46:20.258Z,23.5
2022-11-28T17:48:24.136Z,22.7
2022-11-28T17:50:27.974Z,19.9
2022-11-28T17:52:31.878Z,21.8
2022-11-28T17:54:35.739Z,21.5
2022-11-28T17:56:39.591Z,20.8
2022-11-28T17:58:46.304Z,22.5
2022-11-28T18:00:50.235Z,21.5
2022-11-28T18:02:54.041Z,20.7
2022-11-28T18:04:57.914Z,24.5
2022-11-28T18:07:01.763Z,23.1
2022-11-28T18:11:09.563Z,20.3
2022-11-28T18:13:16.192Z,26.4
2022-11-28T18:19:57.424Z,24.8
2022-11-28T18:21:57.405Z,20.4
2022-11-28T18:24:01.286Z,23.3
2022-11-28T18:26:07.972Z,21.4
2022-11-28T18:28:15.877Z,21
2022-11-28T18:30:15.956Z,22.7
2022-11-28T18:32:19.579Z,20.3
2022-11-28T18:34:23.452Z,21.5
2022-11-28T18:36:27.317Z,20.2
2022-11-28T18:38:31.219Z,22
2022-11-28T18:40:37.852Z,20.7
2022-11-28T18:42:41.744Z,21.7
2022-11-28T18:44:45.619Z,20.7
2022-11-28T18:46:49.498Z,21.3
2022-11-28T18:48:53.354Z,21.1
2022-11-28T18:50:57.231Z,23
2022-11-28T18:53:01.089Z,21.8
2022-11-28T18:57:11.644Z,20.8
2022-11-28T18:59:15.517Z,20.5
2022-11-28T19:01:19.442Z,19.4
2022-11-28T19:03:23.264Z,19.8
2022-11-28T19:05:27.126Z,22.7
2022-11-28T19:07:31.115Z,21.7
2022-11-28T19:09:37.669Z,23.9
2022-11-28T19:11:41.560Z,21.3
2022-11-28T19:13:45.446Z,20.9
2022-11-28T19:14:48.779Z,19.2
2022-11-28T19:21:00.359Z,21.3
2022-11-28T19:23:07.068Z,25.2
2022-11-28T19:25:10.921Z,23.3
2022-11-28T19:29:18.652Z,24.9
2022-11-28T19:31:22.615Z,23.2
2022-11-28T19:33:26.380Z,25.9
2022-11-28T19:35:30.280Z,26.6
2022-11-28T19:37:36.941Z,28.1
2022-11-28T19:39:40.812Z,26.6
2022-11-28T19:41:44.630Z,29.6
2022-11-28T19:43:48.486Z,36.9
2022-11-28T19:45:52.367Z,33.7
2022-11-28T19:47:56.215Z,30
2022-11-28T19:50:00.086Z,31.3
2022-11-28T19:52:06.735Z,34.4
2022-11-28T19:54:10.651Z,32.2
2022-11-28T19:56:14.430Z,35.2
2022-11-28T19:58:18.274Z,32.1
2022-11-28T20:00:22.149Z,29.5
2022-11-28T20:02:26.016Z,30.6
2022-11-28T20:04:29.826Z,29.3
2022-11-28T20:06:36.472Z,27
2022-11-28T20:08:40.320Z,27.9
2022-11-28T20:10:44.167Z,27.5
2022-11-28T20:11:47.493Z,30.4
2022-11-28T20:13:51.345Z,31.3
2022-11-28T20:15:55.147Z,29.5
2022-11-28T20:17:59.002Z,28.8
2022-11-28T20:20:05.658Z,35.3
2022-11-28T20:22:09.520Z,35.5
2022-11-28T20:24:13.346Z,37.3
2022-11-28T20:26:17.207Z,36
2022-11-28T20:28:21.012Z,37
2022-11-28T20:30:24.865Z,32.8
2022-11-28T20:32:28.710Z,30.8
2022-11-28T20:34:35.478Z,34.9
2022-11-28T20:36:39.306Z,27.9
2022-11-28T20:38:43.177Z,27
2022-11-28T20:40:46.989Z,25.8
2022-11-28T20:42:50.840Z,26
2022-11-28T20:44:54.683Z,23.7
2022-11-28T20:46:58.564Z,24.3
2022-11-28T20:49:05.217Z,23.4
2022-11-28T20:51:09.055Z,22.6
2022-11-28T20:53:12.896Z,19.7
2022-11-28T20:57:22.039Z,21.2
2022-11-28T20:59:24.458Z,20.5
2022-11-28T21:01:28.344Z,24.2
2022-11-28T21:03:34.979Z,23.1
2022-11-28T21:05:38.827Z,22.2
2022-11-28T21:08:46.015Z,24.8
2022-11-28T21:10:49.882Z,22.6
2022-11-28T21:12:53.715Z,23
2022-11-28T21:14:57.584Z,24.3
2022-11-28T21:17:04.251Z,20.4
2022-11-28T21:19:08.091Z,23.5
2022-11-28T21:21:11.952Z,22.4
2022-11-28T21:23:15.831Z,24.2
2022-11-28T21:25:19.656Z,19.9
2022-11-28T21:29:27.367Z,21.9
2022-11-28T21:33:37.894Z,21.3
2022-11-28T21:35:41.746Z,19.9
2022-11-28T21:37:45.606Z,17.8
2022-11-28T21:39:49.453Z,18
2022-11-28T21:41:53.312Z,21.4
2022-11-28T21:43:57.174Z,18.4
2022-11-28T21:46:03.896Z,18
2022-11-28T21:48:07.709Z,18.4
2022-11-28T21:50:11.538Z,19.6
2022-11-28T21:52:15.430Z,17.4
2022-11-28T21:54:19.281Z,17.4
2022-11-28T21:56:23.133Z,17.7
2022-11-28T21:58:27.029Z,18.6
2022-11-28T22:00:52.715Z,18.4
2022-11-28T22:02:37.554Z,16.1
2022-11-28T22:07:10.950Z,19.9
2022-11-28T22:09:14.801Z,17.1
2022-11-28T22:11:18.678Z,18.1
2022-11-28T22:13:25.332Z,16.3
2022-11-28T22:15:29.218Z,18.1
2022-11-28T22:19:36.889Z,18.2
2022-11-28T22:21:51.680Z,16.4
2022-11-28T22:23:44.637Z,16.8
2022-11-28T22:25:48.478Z,19.6
2022-11-28T22:32:02.955Z,14.5
2022-11-28T22:34:06.698Z,18
2022-11-28T22:36:10.566Z,14.4
2022-11-28T22:38:14.402Z,15.1
2022-11-28T22:40:18.249Z,17.7
2022-11-28T22:42:24.895Z,16.2
2022-11-28T22:44:28.761Z,16.8
2022-11-28T22:46:32.621Z,18.9
2022-11-28T22:48:36.462Z,15.3
2022-11-28T22:50:41.838Z,12.5
2022-11-28T22:52:45.648Z,16.1
2022-11-28T22:54:49.445Z,15.6
2022-11-28T22:56:56.112Z,21.6
2022-11-28T22:58:59.992Z,14.1
2022-11-28T23:01:03.843Z,17.7
2022-11-28T23:02:07.259Z,15.1
2022-11-28T23:04:10.996Z,16.6
2022-11-28T23:08:18.707Z,14.2
2022-11-28T23:10:25.381Z,17.6
2022-11-28T23:12:29.205Z,16.8
2022-11-28T23:14:33.055Z,15.4
2022-11-28T23:16:36.979Z,15.6
2022-11-28T23:18:40.754Z,19.6
2022-11-28T23:20:44.597Z,14.2
2022-11-28T23:22:48.447Z,15.9
2022-11-28T23:24:55.096Z,14.6
2022-11-28T23:26:58.940Z,14.3
2022-11-28T23:29:02.776Z,14.5
2022-11-28T23:31:06.647Z,15.6
2022-11-28T23:33:10.459Z,16.2
2022-11-28T23:35:14.329Z,14.1
2022-11-28T23:37:18.160Z,14.5
2022-11-28T23:39:24.816Z,17.4
2022-11-28T23:41:28.669Z,18.4
2022-11-28T23:43:32.509Z,16
2022-11-28T23:45:36.504Z,15.3
2022-11-28T23:47:40.237Z,17.1
2022-11-28T23:49:44.112Z,18.3
2022-11-28T23:51:47.927Z,16.8
2022-11-28T23:53:54.597Z,16.2
2022-11-28T23:55:58.468Z,18.8
2022-11-28T23:58:02.310Z,14.6
